SBGL/GIG METAR and TAF weather

Enter ICAO airport designator
Station Type Date Time Source
SBGL METAR 2021/09/20 05:00 UTC NOAA

SBGL 200500Z 10005KT 8000 SCT020 BKN040 23/20 Q1016


Station Type Date Time Source
SBGL Decoded METAR 2021/09/20 05:00 UTC NOAA

Galeao, Brazil (SBGL) 22-49S 043-15W 42M
Sep 20, 2021 - 01:00 AM EDT / 2021.09.20 0500 UTC
Wind: from the E (100 degrees) at 6 MPH (5 KT):0
Visibility: 4 mile(s):0
Sky conditions: mostly cloudy
Temperature: 73 F (23 C)
Dew Point: 68 F (20 C)
Relative Humidity: 83%
Pressure (altimeter): 30.00 in. Hg (1016 hPa)
ob: SBGL 200500Z 10005KT 8000 SCT020 BKN040 23/20 Q1016
cycle: 5

Station Type Date Time Source
SBGL TAF 2021/09/20 06:15 UTC NOAA

TAF SBGL 200411Z 2006/2112 12005KT 7000 BKN015 TN21/2009Z TX29/2017Z
BECMG 2006/2008 09005KT
BECMG 2009/2012 04007KT
BECMG 2015/2018 15012KT CAVOK
BECMG 2020/2023 10007KT
BECMG 2102/2105 30005KT 7000 NSC
BECMG 2109/2112 34005KT
RMK PHC

Example: see airport list